createdAt,value
2019-04-03T00:02:09.106Z,5.17
2019-04-03T00:04:39.210Z,5.63
2019-04-03T00:07:11.821Z,6.00
2019-04-03T00:09:45.324Z,6.10
2019-04-03T00:12:14.706Z,5.20
2019-04-03T00:14:44.815Z,5.70
2019-04-03T00:17:15.616Z,5.10
2019-04-03T00:19:47.758Z,5.43
2019-04-03T00:22:17.752Z,5.30
2019-04-03T00:24:47.847Z,5.70
2019-04-03T00:27:21.964Z,5.30
2019-04-03T00:29:52.162Z,5.03
2019-04-03T00:32:24.652Z,5.60
2019-04-03T00:34:55.725Z,5.03
2019-04-03T00:37:27.395Z,4.97
2019-04-03T00:39:58.600Z,4.93
2019-04-03T00:42:31.535Z,5.20
2019-04-03T00:45:01.654Z,5.17
2019-04-03T00:47:32.770Z,5.60
2019-04-03T00:50:02.844Z,4.90
2019-04-03T00:52:33.015Z,4.90
2019-04-03T00:55:04.447Z,4.90
2019-04-03T00:57:34.579Z,5.63
2019-04-03T01:00:08.402Z,5.73
2019-04-03T01:02:40.634Z,6.67
2019-04-03T01:05:12.813Z,5.53
2019-04-03T01:07:45.811Z,5.70
2019-04-03T01:10:22.052Z,5.73
2019-04-03T01:12:52.072Z,5.60
2019-04-03T01:15:22.152Z,5.53
2019-04-03T01:17:52.201Z,5.73
2019-04-03T01:20:22.314Z,5.60
2019-04-03T01:22:53.977Z,5.67
2019-04-03T01:25:24.072Z,5.63
2019-04-03T01:27:54.247Z,5.60
2019-04-03T01:30:25.632Z,5.17
2019-04-03T01:33:01.474Z,5.97
2019-04-03T01:35:31.302Z,5.47
2019-04-03T01:38:01.382Z,6.00
2019-04-03T01:40:31.444Z,6.00
2019-04-03T01:43:02.745Z,6.20
2019-04-03T01:45:33.304Z,6.40
2019-04-03T01:48:04.468Z,6.03
2019-04-03T01:50:35.846Z,6.13
2019-04-03T01:53:08.950Z,5.83
2019-04-03T01:55:41.208Z,6.70
2019-04-03T01:58:11.396Z,6.00
2019-04-03T02:00:41.533Z,5.90
2019-04-03T02:03:11.599Z,5.93
2019-04-03T02:05:44.112Z,6.10
2019-04-03T02:08:16.976Z,6.73
2019-04-03T02:10:49.299Z,5.63
2019-04-03T02:13:22.032Z,5.93
2019-04-03T02:15:52.863Z,5.97
2019-04-03T02:18:24.892Z,5.87
2019-04-03T02:20:57.787Z,6.07
2019-04-03T02:23:28.913Z,6.07
2019-04-03T02:26:04.067Z,5.97
2019-04-03T02:28:35.309Z,6.20
2019-04-03T02:31:06.876Z,5.70
2019-04-03T02:33:37.215Z,5.80
2019-04-03T02:36:11.146Z,6.00
2019-04-03T02:38:42.136Z,6.30
2019-04-03T02:41:15.699Z,6.30
2019-04-03T02:43:46.573Z,6.60
2019-04-03T02:46:20.366Z,6.90
2019-04-03T02:48:50.186Z,6.03
2019-04-03T02:51:23.867Z,6.30
2019-04-03T02:53:53.975Z,5.90
2019-04-03T02:56:24.110Z,7.33
2019-04-03T02:58:57.255Z,6.50
2019-04-03T03:01:27.494Z,6.50
2019-04-03T03:03:59.215Z,7.10
2019-04-03T03:06:31.525Z,7.30
2019-04-03T03:09:02.058Z,6.90
2019-04-03T03:11:32.133Z,6.90
2019-04-03T03:14:06.179Z,7.10
2019-04-03T03:16:35.918Z,7.17
2019-04-03T03:19:09.061Z,6.83
2019-04-03T03:21:39.980Z,8.60
2019-04-03T03:24:13.411Z,8.23
2019-04-03T03:26:43.762Z,8.67
2019-04-03T03:29:17.631Z,8.27
2019-04-03T03:32:05.672Z,7.40
2019-04-03T03:34:43.798Z,6.97
2019-04-03T03:36:58.755Z,6.40
2019-04-03T03:39:24.008Z,6.67
2019-04-03T03:41:57.522Z,8.40
2019-04-03T03:44:31.065Z,8.13
2019-04-03T03:47:03.050Z,8.47
2019-04-03T03:49:35.048Z,9.50
2019-04-03T03:52:06.332Z,9.50
2019-04-03T03:54:37.249Z,9.00
2019-04-03T03:57:09.006Z,9.70
2019-04-03T03:59:41.051Z,8.63
2019-04-03T04:02:11.503Z,8.47
2019-04-03T04:04:46.637Z,8.33
2019-04-03T04:07:16.917Z,9.60
2019-04-03T04:09:51.682Z,8.47
2019-04-03T04:12:22.101Z,7.93
2019-04-03T04:14:56.883Z,7.57
2019-04-03T04:17:28.226Z,7.10
2019-04-03T04:20:03.148Z,8.80
2019-04-03T04:22:30.913Z,8.07
2019-04-03T04:25:05.287Z,7.70
2019-04-03T04:27:40.739Z,7.73
2019-04-03T04:30:07.782Z,7.80
2019-04-03T04:32:45.465Z,8.50
2019-04-03T04:35:15.135Z,8.30
2019-04-03T04:37:45.388Z,8.80
2019-04-03T04:40:21.012Z,8.87
2019-04-03T04:42:54.079Z,8.90
2019-04-03T04:45:28.508Z,9.30
2019-04-03T04:47:59.182Z,9.33
2019-04-03T04:50:32.934Z,10.93
2019-04-03T04:53:02.070Z,8.93
2019-04-03T04:55:35.125Z,9.00
2019-04-03T04:58:05.279Z,8.83
2019-04-03T05:00:35.440Z,8.80
2019-04-03T05:03:05.468Z,8.87
2019-04-03T05:05:38.897Z,10.90
2019-04-03T05:08:11.472Z,10.53
2019-04-03T05:10:42.493Z,9.40
2019-04-03T05:13:15.222Z,9.27
2019-04-03T05:15:45.443Z,9.70
2019-04-03T05:18:17.402Z,9.73
2019-04-03T05:20:49.080Z,8.97
2019-04-03T05:23:25.597Z,10.10
2019-04-03T05:25:52.973Z,9.00
2019-04-03T05:28:24.875Z,9.63
2019-04-03T05:30:54.549Z,9.53
2019-04-03T05:33:26.792Z,9.03
2019-04-03T05:35:58.623Z,8.70
2019-04-03T05:38:32.119Z,9.00
2019-04-03T05:41:02.940Z,10.37
2019-04-03T05:43:39.418Z,9.20
2019-04-03T05:46:10.788Z,8.87
2019-04-03T05:48:41.410Z,10.20
2019-04-03T05:51:14.002Z,9.97
2019-04-03T05:53:45.212Z,9.63
2019-04-03T05:56:15.276Z,9.87
2019-04-03T05:58:55.574Z,9.73
2019-04-03T06:01:18.631Z,9.97
2019-04-03T06:03:51.015Z,11.20
2019-04-03T06:06:23.203Z,10.53
2019-04-03T06:08:56.208Z,10.67
2019-04-03T06:11:25.359Z,8.70
2019-04-03T06:13:58.557Z,10.03
2019-04-03T06:16:28.789Z,9.30
2019-04-03T06:18:59.975Z,8.87
2019-04-03T06:21:31.079Z,10.07
2019-04-03T06:24:04.300Z,10.97
2019-04-03T06:26:37.798Z,10.80
2019-04-03T06:29:08.222Z,10.83
2019-04-03T06:31:39.926Z,10.83
2019-04-03T06:34:11.266Z,11.90
2019-04-03T06:36:41.560Z,10.07
2019-04-03T06:39:12.772Z,11.40
2019-04-03T06:41:42.918Z,11.00
2019-04-03T06:44:13.112Z,10.60
2019-04-03T06:46:48.335Z,11.40
2019-04-03T06:49:18.507Z,12.37
2019-04-03T06:51:50.198Z,12.60
2019-04-03T06:54:23.155Z,12.07
2019-04-03T06:56:53.281Z,13.00
2019-04-03T06:59:23.712Z,13.33
2019-04-03T07:01:56.043Z,12.80
2019-04-03T07:04:25.880Z,12.77
2019-04-03T07:06:57.218Z,12.27
2019-04-03T07:09:35.328Z,10.43
2019-04-03T07:12:00.811Z,10.63
2019-04-03T07:14:31.061Z,9.90
2019-04-03T07:17:05.195Z,9.23
2019-04-03T07:19:34.295Z,11.07
2019-04-03T07:22:04.379Z,9.83
2019-04-03T07:24:36.057Z,9.90
2019-04-03T07:27:06.934Z,10.57
2019-04-03T07:29:37.211Z,9.97
2019-04-03T07:32:09.192Z,9.30
2019-04-03T07:34:39.656Z,9.40
2019-04-03T07:37:15.298Z,10.57
2019-04-03T07:39:43.343Z,8.80
2019-04-03T07:42:17.738Z,8.30
2019-04-03T07:44:50.585Z,11.40
2019-04-03T07:47:22.207Z,17.07
2019-04-03T07:49:52.370Z,10.53
2019-04-03T07:52:23.710Z,8.03
2019-04-03T07:54:56.422Z,10.57
2019-04-03T07:57:28.148Z,10.80
2019-04-03T07:59:57.558Z,10.37
2019-04-03T08:02:28.085Z,13.20
2019-04-03T08:05:00.938Z,12.30
2019-04-03T08:07:30.192Z,11.43
2019-04-03T08:10:00.409Z,12.17
2019-04-03T08:12:30.519Z,11.50
2019-04-03T08:15:00.658Z,10.20
2019-04-03T08:17:30.761Z,10.33
2019-04-03T08:20:01.060Z,9.60
2019-04-03T08:22:33.360Z,9.13
2019-04-03T08:25:03.261Z,9.60
2019-04-03T08:27:33.684Z,10.63
2019-04-03T08:30:07.549Z,10.50
2019-04-03T08:32:36.868Z,9.27
2019-04-03T08:35:19.525Z,8.30
2019-04-03T08:37:41.978Z,8.50
2019-04-03T08:40:20.348Z,7.90
2019-04-03T08:42:50.816Z,7.93
2019-04-03T08:45:22.084Z,9.20
2019-04-03T08:47:52.394Z,8.80
2019-04-03T08:50:22.533Z,8.30
2019-04-03T08:52:52.651Z,8.87
2019-04-03T08:55:22.815Z,7.47
2019-04-03T08:57:53.316Z,8.80
2019-04-03T09:00:23.702Z,8.58
2019-04-03T09:02:53.809Z,7.42
2019-04-03T09:05:23.851Z,7.45
2019-04-03T09:07:56.169Z,7.97
2019-04-03T09:10:25.731Z,7.15
2019-04-03T09:12:55.949Z,7.67
2019-04-03T09:15:28.253Z,9.60
2019-04-03T09:17:57.900Z,8.83
2019-04-03T09:20:28.018Z,8.30
2019-04-03T09:22:58.193Z,8.55
2019-04-03T09:25:29.823Z,7.80
2019-04-03T09:28:00.167Z,9.90
2019-04-03T09:30:30.479Z,10.07
2019-04-03T09:33:00.839Z,9.50
2019-04-03T09:35:32.485Z,9.73
2019-04-03T09:38:03.184Z,10.10
2019-04-03T09:40:33.833Z,9.50
2019-04-03T09:43:03.988Z,9.70
2019-04-03T09:45:34.075Z,9.07
2019-04-03T09:48:05.630Z,9.40
2019-04-03T09:50:36.187Z,10.30
2019-04-03T09:53:06.230Z,9.73
2019-04-03T09:55:37.616Z,10.93
2019-04-03T09:58:08.260Z,9.80
2019-04-03T10:00:41.263Z,10.23
2019-04-03T10:03:10.759Z,10.13
2019-04-03T10:05:41.065Z,10.27
2019-04-03T10:08:11.388Z,10.07
2019-04-03T10:10:41.579Z,8.87
2019-04-03T10:13:11.659Z,7.70
2019-04-03T10:15:41.809Z,8.80
2019-04-03T10:18:12.010Z,9.33
2019-04-03T10:20:43.541Z,9.93
2019-04-03T10:23:13.627Z,10.00
2019-04-03T10:25:44.913Z,9.47
2019-04-03T10:28:15.294Z,9.33
2019-04-03T10:30:45.791Z,9.40
2019-04-03T10:33:15.892Z,9.93
2019-04-03T10:35:47.455Z,9.87
2019-04-03T10:38:18.216Z,9.50
2019-04-03T10:40:50.966Z,9.87
2019-04-03T10:43:22.200Z,11.00
2019-04-03T10:45:52.712Z,9.57
2019-04-03T10:48:27.324Z,9.90
2019-04-03T10:50:57.448Z,9.73
2019-04-03T10:53:29.061Z,9.33
2019-04-03T10:55:59.844Z,10.40
2019-04-03T10:58:30.704Z,10.73
2019-04-03T11:01:01.187Z,11.80
2019-04-03T11:03:31.683Z,9.67
2019-04-03T11:06:01.835Z,9.87
2019-04-03T11:08:31.977Z,10.13
2019-04-03T11:11:04.929Z,10.53
2019-04-03T11:13:34.734Z,9.90
2019-04-03T11:16:05.407Z,10.50
2019-04-03T11:18:35.657Z,11.53
2019-04-03T11:21:05.951Z,10.57
2019-04-03T11:23:41.908Z,11.23
2019-04-03T11:26:08.410Z,11.07
2019-04-03T11:28:39.078Z,10.77
2019-04-03T11:31:09.435Z,10.03
2019-04-03T11:33:39.916Z,10.83
2019-04-03T11:36:10.221Z,10.20
2019-04-03T11:38:40.389Z,11.37
2019-04-03T11:41:16.566Z,10.80
2019-04-03T11:43:43.558Z,10.37
2019-04-03T11:46:13.877Z,11.07
2019-04-03T11:48:44.163Z,10.40
2019-04-03T11:51:14.506Z,10.00
2019-04-03T11:53:46.457Z,10.73
2019-04-03T11:56:16.970Z,11.30
2019-04-03T11:58:47.155Z,12.17
2019-04-03T12:01:17.994Z,11.77
2019-04-03T12:03:50.531Z,11.70
2019-04-03T12:06:22.015Z,11.90
2019-04-03T12:08:51.788Z,12.30
2019-04-03T12:11:23.093Z,12.40
2019-04-03T12:13:53.963Z,10.40
2019-04-03T12:16:26.213Z,11.13
2019-04-03T12:18:58.513Z,12.33
2019-04-03T12:21:28.688Z,12.27
2019-04-03T12:24:00.571Z,11.00
2019-04-03T12:26:33.183Z,10.37
2019-04-03T12:29:03.254Z,8.13
2019-04-03T12:31:36.809Z,10.10
2019-04-03T12:34:07.531Z,9.60
2019-04-03T12:36:39.275Z,10.10
2019-04-03T12:39:16.026Z,8.80
2019-04-03T12:41:48.626Z,10.13
2019-04-03T12:44:21.485Z,9.67
2019-04-03T12:46:51.815Z,8.30
2019-04-03T12:49:25.076Z,8.50
2019-04-03T12:51:55.989Z,8.83
2019-04-03T12:54:27.319Z,8.50
2019-04-03T12:57:00.291Z,8.10
2019-04-03T12:59:29.373Z,8.30
2019-04-03T13:02:00.602Z,8.70
2019-04-03T13:04:32.855Z,8.90
2019-04-03T13:07:04.979Z,8.20
2019-04-03T13:09:37.707Z,7.90
2019-04-03T13:12:07.498Z,9.30
2019-04-03T13:14:37.676Z,8.63
2019-04-03T13:17:07.850Z,7.80
2019-04-03T13:19:37.917Z,8.03
2019-04-03T13:22:10.265Z,8.17
2019-04-03T13:24:39.690Z,7.53
2019-04-03T13:27:09.824Z,7.80
2019-04-03T13:29:40.810Z,7.67
2019-04-03T13:32:17.085Z,7.60
2019-04-03T13:34:46.184Z,7.70
2019-04-03T13:37:22.165Z,7.30
2019-04-03T13:39:50.935Z,7.10
2019-04-03T13:42:21.123Z,7.40
2019-04-03T13:44:51.272Z,6.53
2019-04-03T13:47:21.659Z,6.00
2019-04-03T13:49:53.616Z,6.13
2019-04-03T13:52:23.687Z,6.13
2019-04-03T13:54:55.302Z,6.93
2019-04-03T13:57:25.633Z,7.60
2019-04-03T14:00:01.058Z,7.20
2019-04-03T14:02:28.833Z,7.00
2019-04-03T14:04:59.967Z,6.90
2019-04-03T14:07:31.444Z,6.50
2019-04-03T14:10:02.209Z,5.60
2019-04-03T14:12:32.403Z,7.83
2019-04-03T14:15:04.327Z,6.80
2019-04-03T14:17:38.491Z,6.40
2019-04-03T14:20:09.967Z,6.73
2019-04-03T14:22:41.777Z,6.70
2019-04-03T14:25:22.209Z,4.67
2019-04-03T14:27:50.006Z,5.77
2019-04-03T14:30:20.320Z,4.27
2019-04-03T14:32:53.402Z,5.03
2019-04-03T14:35:45.348Z,4.63
2019-04-03T14:37:58.188Z,4.97
2019-04-03T14:40:25.891Z,4.57
2019-04-03T14:42:58.679Z,5.00
2019-04-03T14:45:29.019Z,4.40
2019-04-03T14:48:00.692Z,4.60
2019-04-03T14:50:32.499Z,4.70
2019-04-03T14:53:02.677Z,3.87
2019-04-03T14:55:40.661Z,4.53
2019-04-03T14:58:04.763Z,3.80
2019-04-03T15:00:34.920Z,3.80
2019-04-03T15:03:05.774Z,4.23
2019-04-03T15:05:39.639Z,3.70
2019-04-03T15:08:10.697Z,3.90
2019-04-03T15:10:42.633Z,3.70
2019-04-03T15:13:14.338Z,3.30
2019-04-03T15:15:46.843Z,3.20
2019-04-03T15:18:20.206Z,3.60
2019-04-03T15:20:51.362Z,3.30
2019-04-03T15:23:21.965Z,3.73
2019-04-03T15:25:53.329Z,3.60
2019-04-03T15:28:23.630Z,3.57
2019-04-03T15:31:00.897Z,3.20
2019-04-03T15:33:32.164Z,3.40
2019-04-03T15:36:07.952Z,3.30
2019-04-03T15:38:40.582Z,3.40
2019-04-03T15:41:11.599Z,3.30
2019-04-03T15:43:46.642Z,2.70
2019-04-03T15:46:17.344Z,2.57
2019-04-03T15:48:47.734Z,2.97
2019-04-03T15:51:17.950Z,3.10
2019-04-03T15:53:50.323Z,3.17
2019-04-03T15:56:20.458Z,2.47
2019-04-03T15:58:51.424Z,2.87
2019-04-03T16:01:22.152Z,2.70
2019-04-03T16:03:55.679Z,3.10
2019-04-03T16:06:26.074Z,3.40
2019-04-03T16:08:56.727Z,3.73
2019-04-03T16:11:30.484Z,5.10
2019-04-03T16:14:01.425Z,4.50
2019-04-03T16:16:31.637Z,3.73
2019-04-03T16:19:01.748Z,2.23
2019-04-03T16:21:31.927Z,2.30
2019-04-03T16:24:03.119Z,2.40
2019-04-03T16:26:33.686Z,2.27
2019-04-03T16:29:06.620Z,2.40
2019-04-03T16:31:36.009Z,3.37
